sensor_id;sensor_type;location;lat;lon;timestamp;P1;durP1;ratioP1;P2;durP2;ratioP2
56043;SDS011;41912;51.022;3.664;2022-09-13T00:00:35;8.88;;;3.13;;
56043;SDS011;41912;51.022;3.664;2022-09-13T00:03:01;7.68;;;3.20;;
56043;SDS011;41912;51.022;3.664;2022-09-13T00:05:28;9.38;;;2.88;;
56043;SDS011;41912;51.022;3.664;2022-09-13T00:07:54;5.10;;;2.88;;
56043;SDS011;41912;51.022;3.664;2022-09-13T00:10:20;7.03;;;3.05;;
56043;SDS011;41912;51.022;3.664;2022-09-13T00:12:46;7.72;;;2.72;;
56043;SDS011;41912;51.022;3.664;2022-09-13T00:15:12;5.93;;;3.40;;
56043;SDS011;41912;51.022;3.664;2022-09-13T00:17:38;9.57;;;3.25;;
56043;SDS011;41912;51.022;3.664;2022-09-13T00:20:04;6.55;;;3.40;;
56043;SDS011;41912;51.022;3.664;2022-09-13T00:22:30;6.45;;;2.92;;
56043;SDS011;41912;51.022;3.664;2022-09-13T00:24:56;9.35;;;3.15;;
56043;SDS011;41912;51.022;3.664;2022-09-13T00:27:22;15.30;;;3.63;;
56043;SDS011;41912;51.022;3.664;2022-09-13T00:29:47;14.18;;;2.88;;
56043;SDS011;41912;51.022;3.664;2022-09-13T00:32:13;15.48;;;4.00;;
56043;SDS011;41912;51.022;3.664;2022-09-13T00:34:38;9.48;;;3.22;;
56043;SDS011;41912;51.022;3.664;2022-09-13T00:37:04;8.25;;;3.22;;
56043;SDS011;41912;51.022;3.664;2022-09-13T00:39:30;7.55;;;3.00;;
56043;SDS011;41912;51.022;3.664;2022-09-13T00:41:55;6.70;;;2.80;;
56043;SDS011;41912;51.022;3.664;2022-09-13T00:47:13;4.47;;;2.92;;
56043;SDS011;41912;51.022;3.664;2022-09-13T00:49:43;7.28;;;2.67;;
56043;SDS011;41912;51.022;3.664;2022-09-13T00:52:13;5.80;;;3.00;;
56043;SDS011;41912;51.022;3.664;2022-09-13T00:54:54;10.90;;;2.93;;
56043;SDS011;41912;51.022;3.664;2022-09-13T00:57:24;13.07;;;2.90;;
56043;SDS011;41912;51.022;3.664;2022-09-13T00:59:52;11.40;;;3.05;;
56043;SDS011;41912;51.022;3.664;2022-09-13T01:02:39;10.63;;;3.15;;
56043;SDS011;41912;51.022;3.664;2022-09-13T01:05:08;12.48;;;3.05;;
56043;SDS011;41912;51.022;3.664;2022-09-13T01:07:34;7.93;;;2.72;;
56043;SDS011;41912;51.022;3.664;2022-09-13T01:10:02;8.50;;;3.08;;
56043;SDS011;41912;51.022;3.664;2022-09-13T01:12:32;6.22;;;3.20;;
56043;SDS011;41912;51.022;3.664;2022-09-13T01:15:05;8.02;;;2.97;;
56043;SDS011;41912;51.022;3.664;2022-09-13T01:17:31;11.80;;;3.08;;
56043;SDS011;41912;51.022;3.664;2022-09-13T01:19:58;8.73;;;3.22;;
56043;SDS011;41912;51.022;3.664;2022-09-13T01:31:01;12.82;;;2.80;;
56043;SDS011;41912;51.022;3.664;2022-09-13T01:44:26;8.57;;;3.22;;
56043;SDS011;41912;51.022;3.664;2022-09-13T01:47:37;6.15;;;2.85;;
56043;SDS011;41912;51.022;3.664;2022-09-13T01:49:56;5.28;;;3.00;;
56043;SDS011;41912;51.022;3.664;2022-09-13T01:52:53;15.25;;;3.00;;
56043;SDS011;41912;51.022;3.664;2022-09-13T01:56:00;4.32;;;2.70;;
56043;SDS011;41912;51.022;3.664;2022-09-13T01:58:27;7.00;;;2.55;;
56043;SDS011;41912;51.022;3.664;2022-09-13T02:01:11;4.20;;;2.80;;
56043;SDS011;41912;51.022;3.664;2022-09-13T02:03:44;7.63;;;3.03;;
56043;SDS011;41912;51.022;3.664;2022-09-13T02:06:21;8.07;;;3.05;;
56043;SDS011;41912;51.022;3.664;2022-09-13T02:08:53;7.45;;;2.60;;
56043;SDS011;41912;51.022;3.664;2022-09-13T02:11:21;6.57;;;2.70;;
56043;SDS011;41912;51.022;3.664;2022-09-13T02:13:49;9.82;;;3.13;;
56043;SDS011;41912;51.022;3.664;2022-09-13T02:16:32;4.13;;;2.80;;
56043;SDS011;41912;51.022;3.664;2022-09-13T02:19:04;7.07;;;2.75;;
56043;SDS011;41912;51.022;3.664;2022-09-13T02:21:43;7.90;;;2.90;;
56043;SDS011;41912;51.022;3.664;2022-09-13T02:24:22;6.72;;;2.85;;
56043;SDS011;41912;51.022;3.664;2022-09-13T02:26:53;6.18;;;2.83;;
56043;SDS011;41912;51.022;3.664;2022-09-13T02:29:20;4.35;;;2.70;;
56043;SDS011;41912;51.022;3.664;2022-09-13T02:31:53;8.25;;;2.80;;
56043;SDS011;41912;51.022;3.664;2022-09-13T02:34:25;5.38;;;2.45;;
56043;SDS011;41912;51.022;3.664;2022-09-13T02:36:55;7.53;;;3.35;;
56043;SDS011;41912;51.022;3.664;2022-09-13T02:39:23;8.77;;;2.42;;
56043;SDS011;41912;51.022;3.664;2022-09-13T02:41:52;4.18;;;2.75;;
56043;SDS011;41912;51.022;3.664;2022-09-13T02:44:42;6.97;;;2.85;;
56043;SDS011;41912;51.022;3.664;2022-09-13T03:00:23;8.00;;;2.88;;
56043;SDS011;41912;51.022;3.664;2022-09-13T03:02:49;5.72;;;2.95;;
56043;SDS011;41912;51.022;3.664;2022-09-13T03:05:17;5.53;;;2.30;;
56043;SDS011;41912;51.022;3.664;2022-09-13T03:07:43;7.72;;;2.83;;
56043;SDS011;41912;51.022;3.664;2022-09-13T03:10:09;4.97;;;2.70;;
56043;SDS011;41912;51.022;3.664;2022-09-13T03:17:59;9.38;;;3.45;;
56043;SDS011;41912;51.022;3.664;2022-09-13T03:20:40;9.55;;;3.85;;
56043;SDS011;41912;51.022;3.664;2022-09-13T03:29:05;4.90;;;3.13;;
56043;SDS011;41912;51.022;3.664;2022-09-13T03:36:50;7.75;;;2.80;;
56043;SDS011;41912;51.022;3.664;2022-09-13T03:42:13;5.40;;;2.70;;
56043;SDS011;41912;51.022;3.664;2022-09-13T03:45:02;10.45;;;2.70;;
56043;SDS011;41912;51.022;3.664;2022-09-13T03:47:30;10.82;;;2.75;;
56043;SDS011;41912;51.022;3.664;2022-09-13T03:50:00;6.45;;;3.10;;
56043;SDS011;41912;51.022;3.664;2022-09-13T03:52:27;7.32;;;2.92;;
56043;SDS011;41912;51.022;3.664;2022-09-13T03:54:53;8.90;;;3.17;;
56043;SDS011;41912;51.022;3.664;2022-09-13T03:57:20;5.35;;;2.80;;
56043;SDS011;41912;51.022;3.664;2022-09-13T03:59:50;4.65;;;2.80;;
56043;SDS011;41912;51.022;3.664;2022-09-13T04:02:16;8.60;;;2.47;;
56043;SDS011;41912;51.022;3.664;2022-09-13T04:04:43;7.90;;;2.75;;
56043;SDS011;41912;51.022;3.664;2022-09-13T04:07:10;3.33;;;2.40;;
56043;SDS011;41912;51.022;3.664;2022-09-13T04:09:43;6.63;;;2.60;;
56043;SDS011;41912;51.022;3.664;2022-09-13T04:12:10;9.38;;;3.10;;
56043;SDS011;41912;51.022;3.664;2022-09-13T04:14:38;8.23;;;2.88;;
56043;SDS011;41912;51.022;3.664;2022-09-13T04:17:04;14.55;;;2.85;;
56043;SDS011;41912;51.022;3.664;2022-09-13T04:19:30;11.43;;;3.03;;
56043;SDS011;41912;51.022;3.664;2022-09-13T04:21:56;6.80;;;2.60;;
56043;SDS011;41912;51.022;3.664;2022-09-13T04:24:26;7.25;;;2.78;;
56043;SDS011;41912;51.022;3.664;2022-09-13T04:26:53;5.57;;;2.60;;
56043;SDS011;41912;51.022;3.664;2022-09-13T04:29:20;5.43;;;2.78;;
56043;SDS011;41912;51.022;3.664;2022-09-13T04:31:47;6.72;;;2.65;;
56043;SDS011;41912;51.022;3.664;2022-09-13T04:34:13;7.40;;;2.88;;
56043;SDS011;41912;51.022;3.664;2022-09-13T04:36:39;6.38;;;3.08;;
56043;SDS011;41912;51.022;3.664;2022-09-13T04:39:05;4.15;;;2.70;;
56043;SDS011;41912;51.022;3.664;2022-09-13T04:41:31;7.38;;;3.22;;
56043;SDS011;41912;51.022;3.664;2022-09-13T04:43:59;6.57;;;2.78;;
56043;SDS011;41912;51.022;3.664;2022-09-13T04:46:25;8.38;;;2.70;;
56043;SDS011;41912;51.022;3.664;2022-09-13T04:48:52;5.10;;;3.00;;
56043;SDS011;41912;51.022;3.664;2022-09-13T04:51:18;5.10;;;2.72;;
56043;SDS011;41912;51.022;3.664;2022-09-13T04:53:45;5.95;;;2.67;;
56043;SDS011;41912;51.022;3.664;2022-09-13T04:56:16;7.53;;;2.80;;
56043;SDS011;41912;51.022;3.664;2022-09-13T04:58:43;5.80;;;2.78;;
56043;SDS011;41912;51.022;3.664;2022-09-13T05:01:09;7.85;;;2.75;;
56043;SDS011;41912;51.022;3.664;2022-09-13T05:03:35;9.85;;;3.03;;
56043;SDS011;41912;51.022;3.664;2022-09-13T05:06:05;7.03;;;2.90;;
56043;SDS011;41912;51.022;3.664;2022-09-13T05:08:36;6.10;;;3.25;;
56043;SDS011;41912;51.022;3.664;2022-09-13T05:11:02;5.15;;;3.03;;
56043;SDS011;41912;51.022;3.664;2022-09-13T05:13:29;10.75;;;3.15;;
56043;SDS011;41912;51.022;3.664;2022-09-13T05:15:56;7.72;;;2.75;;
56043;SDS011;41912;51.022;3.664;2022-09-13T05:18:26;4.38;;;2.88;;
56043;SDS011;41912;51.022;3.664;2022-09-13T05:20:56;8.40;;;2.97;;
56043;SDS011;41912;51.022;3.664;2022-09-13T05:23:23;4.75;;;2.67;;
56043;SDS011;41912;51.022;3.664;2022-09-13T05:25:53;5.95;;;2.70;;
56043;SDS011;41912;51.022;3.664;2022-09-13T05:28:20;6.97;;;3.25;;
56043;SDS011;41912;51.022;3.664;2022-09-13T05:30:56;6.85;;;2.72;;
56043;SDS011;41912;51.022;3.664;2022-09-13T05:33:23;6.30;;;3.00;;
56043;SDS011;41912;51.022;3.664;2022-09-13T05:35:49;9.27;;;3.10;;
56043;SDS011;41912;51.022;3.664;2022-09-13T05:38:16;20.48;;;3.33;;
56043;SDS011;41912;51.022;3.664;2022-09-13T05:40:45;4.65;;;3.10;;
56043;SDS011;41912;51.022;3.664;2022-09-13T05:43:11;6.30;;;3.10;;
56043;SDS011;41912;51.022;3.664;2022-09-13T05:45:37;9.70;;;2.97;;
56043;SDS011;41912;51.022;3.664;2022-09-13T05:48:03;11.23;;;3.58;;
56043;SDS011;41912;51.022;3.664;2022-09-13T05:50:29;10.73;;;3.50;;
56043;SDS011;41912;51.022;3.664;2022-09-13T05:52:54;6.78;;;2.65;;
56043;SDS011;41912;51.022;3.664;2022-09-13T05:55:21;5.63;;;3.22;;
56043;SDS011;41912;51.022;3.664;2022-09-13T05:57:47;6.93;;;3.20;;
56043;SDS011;41912;51.022;3.664;2022-09-13T06:00:14;4.72;;;3.05;;
56043;SDS011;41912;51.022;3.664;2022-09-13T06:02:40;6.95;;;3.00;;
56043;SDS011;41912;51.022;3.664;2022-09-13T06:05:07;8.23;;;3.33;;
56043;SDS011;41912;51.022;3.664;2022-09-13T06:07:34;6.53;;;2.75;;
56043;SDS011;41912;51.022;3.664;2022-09-13T06:10:00;6.55;;;3.25;;
56043;SDS011;41912;51.022;3.664;2022-09-13T06:12:26;10.43;;;2.45;;
56043;SDS011;41912;51.022;3.664;2022-09-13T06:14:52;5.07;;;3.00;;
56043;SDS011;41912;51.022;3.664;2022-09-13T06:17:18;7.00;;;3.17;;
56043;SDS011;41912;51.022;3.664;2022-09-13T06:19:43;5.82;;;2.88;;
56043;SDS011;41912;51.022;3.664;2022-09-13T06:22:09;6.70;;;3.38;;
56043;SDS011;41912;51.022;3.664;2022-09-13T06:24:34;7.43;;;3.05;;
56043;SDS011;41912;51.022;3.664;2022-09-13T06:27:03;8.38;;;3.40;;
56043;SDS011;41912;51.022;3.664;2022-09-13T06:29:29;5.43;;;3.40;;
56043;SDS011;41912;51.022;3.664;2022-09-13T06:31:55;8.00;;;3.30;;
56043;SDS011;41912;51.022;3.664;2022-09-13T06:34:22;9.85;;;3.67;;
56043;SDS011;41912;51.022;3.664;2022-09-13T06:36:48;4.72;;;3.15;;
56043;SDS011;41912;51.022;3.664;2022-09-13T06:39:13;5.82;;;3.53;;
56043;SDS011;41912;51.022;3.664;2022-09-13T06:41:39;16.45;;;4.28;;
56043;SDS011;41912;51.022;3.664;2022-09-13T06:44:05;9.85;;;4.07;;
56043;SDS011;41912;51.022;3.664;2022-09-13T06:46:31;10.65;;;3.72;;
56043;SDS011;41912;51.022;3.664;2022-09-13T06:48:59;5.85;;;3.67;;
56043;SDS011;41912;51.022;3.664;2022-09-13T06:51:26;11.27;;;3.85;;
56043;SDS011;41912;51.022;3.664;2022-09-13T06:53:53;9.70;;;4.28;;
56043;SDS011;41912;51.022;3.664;2022-09-13T06:56:25;11.35;;;3.90;;
56043;SDS011;41912;51.022;3.664;2022-09-13T06:58:54;10.50;;;4.43;;
56043;SDS011;41912;51.022;3.664;2022-09-13T07:03:48;6.45;;;3.10;;
56043;SDS011;41912;51.022;3.664;2022-09-13T07:08:44;10.48;;;5.22;;
56043;SDS011;41912;51.022;3.664;2022-09-13T07:11:11;8.75;;;4.63;;
56043;SDS011;41912;51.022;3.664;2022-09-13T07:13:39;8.57;;;4.65;;
56043;SDS011;41912;51.022;3.664;2022-09-13T07:16:06;9.45;;;4.75;;
56043;SDS011;41912;51.022;3.664;2022-09-13T07:18:34;8.00;;;4.25;;
56043;SDS011;41912;51.022;3.664;2022-09-13T07:21:00;9.60;;;4.80;;
56043;SDS011;41912;51.022;3.664;2022-09-13T07:23:31;12.75;;;5.70;;
56043;SDS011;41912;51.022;3.664;2022-09-13T07:25:59;11.52;;;5.82;;
56043;SDS011;41912;51.022;3.664;2022-09-13T07:28:33;11.95;;;5.57;;
56043;SDS011;41912;51.022;3.664;2022-09-13T07:31:43;11.77;;;6.40;;
56043;SDS011;41912;51.022;3.664;2022-09-13T07:33:55;12.63;;;6.35;;
56043;SDS011;41912;51.022;3.664;2022-09-13T07:36:22;10.60;;;6.00;;
56043;SDS011;41912;51.022;3.664;2022-09-13T07:38:48;13.90;;;6.47;;
56043;SDS011;41912;51.022;3.664;2022-09-13T07:41:15;13.60;;;6.80;;
56043;SDS011;41912;51.022;3.664;2022-09-13T07:43:42;11.52;;;6.82;;
56043;SDS011;41912;51.022;3.664;2022-09-13T07:46:09;12.43;;;7.82;;
56043;SDS011;41912;51.022;3.664;2022-09-13T07:48:37;12.48;;;7.45;;
56043;SDS011;41912;51.022;3.664;2022-09-13T07:51:18;17.35;;;8.00;;
56043;SDS011;41912;51.022;3.664;2022-09-13T07:53:45;11.77;;;7.00;;
56043;SDS011;41912;51.022;3.664;2022-09-13T07:56:17;16.25;;;12.23;;
56043;SDS011;41912;51.022;3.664;2022-09-13T07:58:49;17.52;;;10.95;;
56043;SDS011;41912;51.022;3.664;2022-09-13T08:03:42;16.88;;;11.07;;
56043;SDS011;41912;51.022;3.664;2022-09-13T08:06:08;22.95;;;12.20;;
56043;SDS011;41912;51.022;3.664;2022-09-13T08:08:35;22.35;;;13.13;;
56043;SDS011;41912;51.022;3.664;2022-09-13T08:11:02;22.77;;;13.43;;
56043;SDS011;41912;51.022;3.664;2022-09-13T08:13:29;16.52;;;12.63;;
56043;SDS011;41912;51.022;3.664;2022-09-13T08:15:59;22.17;;;13.25;;
56043;SDS011;41912;51.022;3.664;2022-09-13T08:18:26;22.27;;;13.05;;
56043;SDS011;41912;51.022;3.664;2022-09-13T08:20:54;19.45;;;11.55;;
56043;SDS011;41912;51.022;3.664;2022-09-13T08:23:24;20.35;;;12.57;;
56043;SDS011;41912;51.022;3.664;2022-09-13T08:25:51;20.67;;;13.40;;
56043;SDS011;41912;51.022;3.664;2022-09-13T08:28:17;24.00;;;14.65;;
56043;SDS011;41912;51.022;3.664;2022-09-13T08:30:45;23.35;;;13.93;;
56043;SDS011;41912;51.022;3.664;2022-09-13T08:33:11;23.90;;;15.27;;
56043;SDS011;41912;51.022;3.664;2022-09-13T08:35:37;28.15;;;14.98;;
56043;SDS011;41912;51.022;3.664;2022-09-13T08:38:04;26.17;;;15.52;;
56043;SDS011;41912;51.022;3.664;2022-09-13T08:40:37;20.00;;;15.18;;
56043;SDS011;41912;51.022;3.664;2022-09-13T08:45:47;27.75;;;18.95;;
56043;SDS011;41912;51.022;3.664;2022-09-13T08:50:42;32.65;;;19.45;;
56043;SDS011;41912;51.022;3.664;2022-09-13T08:53:19;30.88;;;18.02;;
56043;SDS011;41912;51.022;3.664;2022-09-13T08:56:02;35.72;;;18.35;;
56043;SDS011;41912;51.022;3.664;2022-09-13T09:04:01;32.63;;;21.05;;
56043;SDS011;41912;51.022;3.664;2022-09-13T09:07:10;40.80;;;19.55;;
56043;SDS011;41912;51.022;3.664;2022-09-13T09:09:42;36.42;;;17.98;;
56043;SDS011;41912;51.022;3.664;2022-09-13T09:12:18;29.67;;;18.38;;
56043;SDS011;41912;51.022;3.664;2022-09-13T09:15:04;28.67;;;18.48;;
56043;SDS011;41912;51.022;3.664;2022-09-13T09:17:47;26.48;;;15.60;;
56043;SDS011;41912;51.022;3.664;2022-09-13T09:22:52;20.45;;;13.75;;
56043;SDS011;41912;51.022;3.664;2022-09-13T09:25:20;21.92;;;12.52;;
56043;SDS011;41912;51.022;3.664;2022-09-13T09:27:48;21.60;;;12.18;;
56043;SDS011;41912;51.022;3.664;2022-09-13T09:30:14;18.55;;;13.25;;
56043;SDS011;41912;51.022;3.664;2022-09-13T09:38:35;22.25;;;12.82;;
56043;SDS011;41912;51.022;3.664;2022-09-13T09:41:13;19.58;;;11.85;;
56043;SDS011;41912;51.022;3.664;2022-09-13T09:46:28;16.45;;;11.40;;
56043;SDS011;41912;51.022;3.664;2022-09-13T09:49:05;20.10;;;13.70;;
56043;SDS011;41912;51.022;3.664;2022-09-13T09:51:58;24.45;;;15.77;;
56043;SDS011;41912;51.022;3.664;2022-09-13T09:54:26;29.10;;;16.17;;
56043;SDS011;41912;51.022;3.664;2022-09-13T09:56:55;22.67;;;16.42;;
56043;SDS011;41912;51.022;3.664;2022-09-13T09:59:28;25.75;;;15.10;;
56043;SDS011;41912;51.022;3.664;2022-09-13T10:01:56;23.77;;;16.77;;
56043;SDS011;41912;51.022;3.664;2022-09-13T10:04:24;37.10;;;19.33;;
56043;SDS011;41912;51.022;3.664;2022-09-13T10:06:51;26.52;;;17.65;;
56043;SDS011;41912;51.022;3.664;2022-09-13T10:09:55;32.80;;;20.60;;
56043;SDS011;41912;51.022;3.664;2022-09-13T10:12:41;35.85;;;22.02;;
56043;SDS011;41912;51.022;3.664;2022-09-13T10:17:41;36.03;;;24.02;;
56043;SDS011;41912;51.022;3.664;2022-09-13T10:22:39;30.10;;;19.25;;
56043;SDS011;41912;51.022;3.664;2022-09-13T10:27:54;29.70;;;17.42;;
56043;SDS011;41912;51.022;3.664;2022-09-13T10:30:37;26.25;;;16.00;;
56043;SDS011;41912;51.022;3.664;2022-09-13T10:33:26;21.80;;;13.70;;
56043;SDS011;41912;51.022;3.664;2022-09-13T10:36:20;23.77;;;10.27;;
56043;SDS011;41912;51.022;3.664;2022-09-13T10:39:07;16.50;;;10.68;;
56043;SDS011;41912;51.022;3.664;2022-09-13T10:41:41;17.42;;;10.23;;
56043;SDS011;41912;51.022;3.664;2022-09-13T10:44:22;12.30;;;7.80;;
56043;SDS011;41912;51.022;3.664;2022-09-13T10:46:52;14.90;;;7.63;;
56043;SDS011;41912;51.022;3.664;2022-09-13T10:54:47;11.10;;;7.00;;
56043;SDS011;41912;51.022;3.664;2022-09-13T10:57:24;10.73;;;6.03;;
56043;SDS011;41912;51.022;3.664;2022-09-13T11:00:00;14.68;;;5.75;;
56043;SDS011;41912;51.022;3.664;2022-09-13T11:05:25;9.18;;;4.57;;
56043;SDS011;41912;51.022;3.664;2022-09-13T11:08:07;10.65;;;5.65;;
56043;SDS011;41912;51.022;3.664;2022-09-13T11:22:07;11.88;;;6.18;;
56043;SDS011;41912;51.022;3.664;2022-09-13T11:32:38;11.63;;;5.25;;
56043;SDS011;41912;51.022;3.664;2022-09-13T11:35:48;12.80;;;5.82;;
56043;SDS011;41912;51.022;3.664;2022-09-13T11:39:00;10.57;;;5.43;;
56043;SDS011;41912;51.022;3.664;2022-09-13T11:44:23;10.23;;;3.95;;
56043;SDS011;41912;51.022;3.664;2022-09-13T11:47:15;12.95;;;5.72;;
56043;SDS011;41912;51.022;3.664;2022-09-13T11:52:47;12.07;;;4.47;;
56043;SDS011;41912;51.022;3.664;2022-09-13T11:57:54;8.15;;;4.88;;
56043;SDS011;41912;51.022;3.664;2022-09-13T12:03:01;9.52;;;3.67;;
56043;SDS011;41912;51.022;3.664;2022-09-13T12:05:29;8.02;;;3.90;;
56043;SDS011;41912;51.022;3.664;2022-09-13T12:08:12;7.68;;;4.47;;
56043;SDS011;41912;51.022;3.664;2022-09-13T12:13:15;8.85;;;5.22;;
56043;SDS011;41912;51.022;3.664;2022-09-13T12:15:46;9.48;;;5.18;;
56043;SDS011;41912;51.022;3.664;2022-09-13T12:18:22;8.75;;;4.88;;
56043;SDS011;41912;51.022;3.664;2022-09-13T12:21:03;12.63;;;5.35;;
56043;SDS011;41912;51.022;3.664;2022-09-13T12:26:45;9.65;;;5.53;;
56043;SDS011;41912;51.022;3.664;2022-09-13T12:29:12;9.18;;;4.40;;
56043;SDS011;41912;51.022;3.664;2022-09-13T12:31:39;9.77;;;4.22;;
56043;SDS011;41912;51.022;3.664;2022-09-13T12:34:05;7.53;;;4.28;;
56043;SDS011;41912;51.022;3.664;2022-09-13T12:50:24;17.52;;;7.10;;
56043;SDS011;41912;51.022;3.664;2022-09-13T13:01:24;13.05;;;7.00;;
56043;SDS011;41912;51.022;3.664;2022-09-13T13:03:54;14.05;;;6.93;;
56043;SDS011;41912;51.022;3.664;2022-09-13T13:06:35;14.30;;;7.22;;
56043;SDS011;41912;51.022;3.664;2022-09-13T13:09:22;13.45;;;7.95;;
56043;SDS011;41912;51.022;3.664;2022-09-13T13:11:52;16.73;;;6.53;;
56043;SDS011;41912;51.022;3.664;2022-09-13T13:17:34;15.13;;;7.30;;
56043;SDS011;41912;51.022;3.664;2022-09-13T13:19:57;13.90;;;7.15;;
56043;SDS011;41912;51.022;3.664;2022-09-13T13:25:53;13.93;;;7.40;;
56043;SDS011;41912;51.022;3.664;2022-09-13T13:28:03;14.05;;;7.38;;
56043;SDS011;41912;51.022;3.664;2022-09-13T13:31:07;11.55;;;7.78;;
56043;SDS011;41912;51.022;3.664;2022-09-13T13:33:55;16.57;;;8.33;;
56043;SDS011;41912;51.022;3.664;2022-09-13T13:41:54;14.68;;;7.38;;
56043;SDS011;41912;51.022;3.664;2022-09-13T13:59:48;14.05;;;7.95;;
56043;SDS011;41912;51.022;3.664;2022-09-13T14:02:16;13.93;;;8.02;;
56043;SDS011;41912;51.022;3.664;2022-09-13T14:04:59;13.82;;;8.60;;
56043;SDS011;41912;51.022;3.664;2022-09-13T14:16:09;10.82;;;7.95;;
56043;SDS011;41912;51.022;3.664;2022-09-13T14:19:16;16.10;;;7.80;;
56043;SDS011;41912;51.022;3.664;2022-09-13T14:24:41;20.02;;;8.88;;
56043;SDS011;41912;51.022;3.664;2022-09-13T14:27:12;12.98;;;8.60;;
56043;SDS011;41912;51.022;3.664;2022-09-13T14:29:43;12.45;;;8.38;;
56043;SDS011;41912;51.022;3.664;2022-09-13T14:32:11;13.60;;;8.68;;
56043;SDS011;41912;51.022;3.664;2022-09-13T14:34:55;11.35;;;8.30;;
56043;SDS011;41912;51.022;3.664;2022-09-13T14:37:24;14.77;;;8.15;;
56043;SDS011;41912;51.022;3.664;2022-09-13T14:39:54;21.38;;;9.50;;
56043;SDS011;41912;51.022;3.664;2022-09-13T14:42:20;13.10;;;8.35;;
56043;SDS011;41912;51.022;3.664;2022-09-13T14:44:47;9.85;;;8.27;;
56043;SDS011;41912;51.022;3.664;2022-09-13T14:47:21;13.45;;;9.35;;
56043;SDS011;41912;51.022;3.664;2022-09-13T14:50:16;13.32;;;9.15;;
56043;SDS011;41912;51.022;3.664;2022-09-13T14:52:47;10.70;;;8.82;;
56043;SDS011;41912;51.022;3.664;2022-09-13T14:55:41;14.70;;;9.48;;
56043;SDS011;41912;51.022;3.664;2022-09-13T14:58:15;12.00;;;9.15;;
56043;SDS011;41912;51.022;3.664;2022-09-13T15:01:05;14.60;;;8.45;;
56043;SDS011;41912;51.022;3.664;2022-09-13T15:03:34;12.55;;;8.75;;
56043;SDS011;41912;51.022;3.664;2022-09-13T15:06:01;14.63;;;8.70;;
56043;SDS011;41912;51.022;3.664;2022-09-13T15:10:58;16.27;;;8.55;;
56043;SDS011;41912;51.022;3.664;2022-09-13T15:13:25;11.85;;;8.90;;
56043;SDS011;41912;51.022;3.664;2022-09-13T15:15:51;13.63;;;8.95;;
56043;SDS011;41912;51.022;3.664;2022-09-13T15:21:05;15.82;;;8.68;;
56043;SDS011;41912;51.022;3.664;2022-09-13T15:23:40;14.15;;;9.57;;
56043;SDS011;41912;51.022;3.664;2022-09-13T15:26:18;11.60;;;8.80;;
56043;SDS011;41912;51.022;3.664;2022-09-13T15:28:49;13.77;;;9.45;;
56043;SDS011;41912;51.022;3.664;2022-09-13T15:31:24;16.90;;;9.60;;
56043;SDS011;41912;51.022;3.664;2022-09-13T15:36:39;14.98;;;9.40;;
56043;SDS011;41912;51.022;3.664;2022-09-13T15:41:37;14.32;;;10.18;;
56043;SDS011;41912;51.022;3.664;2022-09-13T15:44:04;16.65;;;11.98;;
56043;SDS011;41912;51.022;3.664;2022-09-13T15:46:31;15.15;;;11.13;;
56043;SDS011;41912;51.022;3.664;2022-09-13T15:49:08;12.82;;;10.02;;
56043;SDS011;41912;51.022;3.664;2022-09-13T15:51:41;15.30;;;10.70;;
56043;SDS011;41912;51.022;3.664;2022-09-13T15:54:12;18.98;;;10.80;;
56043;SDS011;41912;51.022;3.664;2022-09-13T15:56:40;17.60;;;10.75;;
56043;SDS011;41912;51.022;3.664;2022-09-13T15:59:15;17.02;;;11.52;;
56043;SDS011;41912;51.022;3.664;2022-09-13T16:01:43;16.10;;;10.80;;
56043;SDS011;41912;51.022;3.664;2022-09-13T16:04:10;18.08;;;11.60;;
56043;SDS011;41912;51.022;3.664;2022-09-13T16:06:36;13.98;;;10.57;;
56043;SDS011;41912;51.022;3.664;2022-09-13T16:11:48;14.40;;;11.05;;
56043;SDS011;41912;51.022;3.664;2022-09-13T16:14:14;16.60;;;11.05;;
56043;SDS011;41912;51.022;3.664;2022-09-13T16:16:41;15.63;;;10.40;;
56043;SDS011;41912;51.022;3.664;2022-09-13T16:19:17;14.38;;;11.38;;
56043;SDS011;41912;51.022;3.664;2022-09-13T16:21:44;15.95;;;11.32;;
56043;SDS011;41912;51.022;3.664;2022-09-13T16:24:11;16.60;;;11.25;;
56043;SDS011;41912;51.022;3.664;2022-09-13T16:26:37;12.23;;;8.55;;
56043;SDS011;41912;51.022;3.664;2022-09-13T16:29:03;11.90;;;7.72;;
56043;SDS011;41912;51.022;3.664;2022-09-13T16:31:29;10.18;;;7.30;;
56043;SDS011;41912;51.022;3.664;2022-09-13T16:33:55;11.55;;;6.90;;
56043;SDS011;41912;51.022;3.664;2022-09-13T16:36:21;9.95;;;7.13;;
56043;SDS011;41912;51.022;3.664;2022-09-13T16:38:46;12.80;;;7.53;;
56043;SDS011;41912;51.022;3.664;2022-09-13T16:41:12;21.27;;;7.47;;
56043;SDS011;41912;51.022;3.664;2022-09-13T16:43:37;9.30;;;5.72;;
56043;SDS011;41912;51.022;3.664;2022-09-13T16:46:07;9.95;;;4.93;;
56043;SDS011;41912;51.022;3.664;2022-09-13T16:48:34;12.38;;;5.97;;
56043;SDS011;41912;51.022;3.664;2022-09-13T16:51:04;11.90;;;5.85;;
56043;SDS011;41912;51.022;3.664;2022-09-13T16:53:32;7.75;;;4.72;;
56043;SDS011;41912;51.022;3.664;2022-09-13T16:56:09;8.65;;;4.70;;
56043;SDS011;41912;51.022;3.664;2022-09-13T16:58:38;9.18;;;5.05;;
56043;SDS011;41912;51.022;3.664;2022-09-13T17:01:05;7.65;;;4.57;;
56043;SDS011;41912;51.022;3.664;2022-09-13T17:03:31;8.23;;;4.28;;
56043;SDS011;41912;51.022;3.664;2022-09-13T17:06:00;11.38;;;4.63;;
56043;SDS011;41912;51.022;3.664;2022-09-13T17:08:27;9.68;;;4.88;;
56043;SDS011;41912;51.022;3.664;2022-09-13T17:10:53;13.45;;;4.57;;
56043;SDS011;41912;51.022;3.664;2022-09-13T17:13:19;9.98;;;4.78;;
56043;SDS011;41912;51.022;3.664;2022-09-13T17:15:45;12.18;;;4.07;;
56043;SDS011;41912;51.022;3.664;2022-09-13T17:18:10;10.20;;;4.13;;
56043;SDS011;41912;51.022;3.664;2022-09-13T17:20:41;12.80;;;4.78;;
56043;SDS011;41912;51.022;3.664;2022-09-13T17:23:10;8.98;;;4.55;;
56043;SDS011;41912;51.022;3.664;2022-09-13T17:25:39;10.60;;;4.50;;
56043;SDS011;41912;51.022;3.664;2022-09-13T17:28:07;8.75;;;4.00;;
56043;SDS011;41912;51.022;3.664;2022-09-13T17:30:32;11.68;;;4.28;;
56043;SDS011;41912;51.022;3.664;2022-09-13T17:32:58;9.95;;;3.85;;
56043;SDS011;41912;51.022;3.664;2022-09-13T17:35:24;9.45;;;3.70;;
56043;SDS011;41912;51.022;3.664;2022-09-13T17:37:50;9.27;;;3.63;;
56043;SDS011;41912;51.022;3.664;2022-09-13T17:40:15;6.85;;;3.42;;
56043;SDS011;41912;51.022;3.664;2022-09-13T17:42:41;12.52;;;3.83;;
56043;SDS011;41912;51.022;3.664;2022-09-13T17:45:09;11.73;;;4.28;;
56043;SDS011;41912;51.022;3.664;2022-09-13T17:47:34;8.07;;;3.13;;
56043;SDS011;41912;51.022;3.664;2022-09-13T17:50:00;10.85;;;3.55;;
56043;SDS011;41912;51.022;3.664;2022-09-13T17:52:26;9.15;;;3.50;;
56043;SDS011;41912;51.022;3.664;2022-09-13T17:54:51;6.40;;;3.38;;
56043;SDS011;41912;51.022;3.664;2022-09-13T17:57:18;8.48;;;2.97;;
56043;SDS011;41912;51.022;3.664;2022-09-13T17:59:43;7.10;;;2.60;;
56043;SDS011;41912;51.022;3.664;2022-09-13T18:02:11;8.57;;;2.35;;
56043;SDS011;41912;51.022;3.664;2022-09-13T18:04:36;4.90;;;2.15;;
56043;SDS011;41912;51.022;3.664;2022-09-13T18:07:02;9.75;;;2.67;;
56043;SDS011;41912;51.022;3.664;2022-09-13T18:09:28;7.25;;;2.35;;
56043;SDS011;41912;51.022;3.664;2022-09-13T18:11:53;8.55;;;2.15;;
56043;SDS011;41912;51.022;3.664;2022-09-13T18:14:19;6.85;;;2.47;;
56043;SDS011;41912;51.022;3.664;2022-09-13T18:16:45;8.52;;;2.60;;
56043;SDS011;41912;51.022;3.664;2022-09-13T18:19:13;6.32;;;1.90;;
56043;SDS011;41912;51.022;3.664;2022-09-13T18:21:39;12.68;;;1.73;;
56043;SDS011;41912;51.022;3.664;2022-09-13T18:24:05;7.25;;;1.63;;
56043;SDS011;41912;51.022;3.664;2022-09-13T18:26:31;6.10;;;1.83;;
56043;SDS011;41912;51.022;3.664;2022-09-13T18:28:58;8.32;;;1.95;;